sensor_id;sensor_type;location;lat;lon;timestamp;temperature;humidity
3186;DHT22;1604;53.700;10.252;2024-03-25T00:01:32;5.80;98.70
3186;DHT22;1604;53.700;10.252;2024-03-25T00:04:33;5.70;98.70
3186;DHT22;1604;53.700;10.252;2024-03-25T00:07:36;5.80;98.80
3186;DHT22;1604;53.700;10.252;2024-03-25T00:10:37;5.80;98.80
3186;DHT22;1604;53.700;10.252;2024-03-25T00:13:40;5.80;99.00
3186;DHT22;1604;53.700;10.252;2024-03-25T00:16:41;5.80;99.10
3186;DHT22;1604;53.700;10.252;2024-03-25T00:19:43;5.80;99.00
3186;DHT22;1604;53.700;10.252;2024-03-25T00:22:49;5.80;99.10
3186;DHT22;1604;53.700;10.252;2024-03-25T00:25:51;5.80;99.30
3186;DHT22;1604;53.700;10.252;2024-03-25T00:28:53;5.80;99.30
3186;DHT22;1604;53.700;10.252;2024-03-25T00:31:55;5.70;99.30
3186;DHT22;1604;53.700;10.252;2024-03-25T00:34:56;5.70;99.30
3186;DHT22;1604;53.700;10.252;2024-03-25T00:37:58;5.70;99.20
3186;DHT22;1604;53.700;10.252;2024-03-25T00:40:59;5.80;99.20
3186;DHT22;1604;53.700;10.252;2024-03-25T00:44:02;5.80;99.60
3186;DHT22;1604;53.700;10.252;2024-03-25T00:47:03;5.80;99.80
3186;DHT22;1604;53.700;10.252;2024-03-25T00:50:06;5.80;99.80
3186;DHT22;1604;53.700;10.252;2024-03-25T00:53:09;5.80;99.90
3186;DHT22;1604;53.700;10.252;2024-03-25T00:56:10;5.80;99.90
3186;DHT22;1604;53.700;10.252;2024-03-25T00:59:13;5.80;99.90
3186;DHT22;1604;53.700;10.252;2024-03-25T01:02:15;5.80;99.90
3186;DHT22;1604;53.700;10.252;2024-03-25T01:05:17;5.70;99.90
3186;DHT22;1604;53.700;10.252;2024-03-25T01:08:19;5.70;99.90
3186;DHT22;1604;53.700;10.252;2024-03-25T01:11:20;5.70;99.80
3186;DHT22;1604;53.700;10.252;2024-03-25T01:14:24;5.80;99.80
3186;DHT22;1604;53.700;10.252;2024-03-25T01:17:26;5.80;99.80
3186;DHT22;1604;53.700;10.252;2024-03-25T01:20:28;5.80;99.80
3186;DHT22;1604;53.700;10.252;2024-03-25T01:23:30;5.80;99.90
3186;DHT22;1604;53.700;10.252;2024-03-25T01:26:31;5.80;99.90
3186;DHT22;1604;53.700;10.252;2024-03-25T01:29:34;5.80;99.80
3186;DHT22;1604;53.700;10.252;2024-03-25T01:32:36;5.80;99.80
3186;DHT22;1604;53.700;10.252;2024-03-25T01:35:37;5.80;99.80
3186;DHT22;1604;53.700;10.252;2024-03-25T01:38:39;5.80;99.70
3186;DHT22;1604;53.700;10.252;2024-03-25T01:41:40;5.80;99.60
3186;DHT22;1604;53.700;10.252;2024-03-25T01:44:43;5.80;99.70
3186;DHT22;1604;53.700;10.252;2024-03-25T01:47:44;5.80;99.60
3186;DHT22;1604;53.700;10.252;2024-03-25T01:50:46;5.80;99.60
3186;DHT22;1604;53.700;10.252;2024-03-25T01:53:47;5.80;99.60
3186;DHT22;1604;53.700;10.252;2024-03-25T01:56:49;5.80;99.60
3186;DHT22;1604;53.700;10.252;2024-03-25T01:59:52;5.80;99.70
3186;DHT22;1604;53.700;10.252;2024-03-25T02:02:55;5.80;99.60
3186;DHT22;1604;53.700;10.252;2024-03-25T02:05:58;5.80;99.50
3186;DHT22;1604;53.700;10.252;2024-03-25T02:09:02;5.80;99.20
3186;DHT22;1604;53.700;10.252;2024-03-25T02:12:05;5.80;99.00
3186;DHT22;1604;53.700;10.252;2024-03-25T02:15:09;5.80;99.00
3186;DHT22;1604;53.700;10.252;2024-03-25T02:18:10;5.80;98.90
3186;DHT22;1604;53.700;10.252;2024-03-25T02:21:12;5.80;98.80
3186;DHT22;1604;53.700;10.252;2024-03-25T02:24:14;5.80;98.70
3186;DHT22;1604;53.700;10.252;2024-03-25T02:27:18;5.80;98.70
3186;DHT22;1604;53.700;10.252;2024-03-25T02:30:19;5.80;98.70
3186;DHT22;1604;53.700;10.252;2024-03-25T02:33:22;5.80;98.90
3186;DHT22;1604;53.700;10.252;2024-03-25T02:36:23;5.80;98.80
3186;DHT22;1604;53.700;10.252;2024-03-25T02:39:25;5.80;98.80
3186;DHT22;1604;53.700;10.252;2024-03-25T02:42:28;5.80;98.80
3186;DHT22;1604;53.700;10.252;2024-03-25T02:45:30;5.80;98.90
3186;DHT22;1604;53.700;10.252;2024-03-25T02:48:32;5.80;98.90
3186;DHT22;1604;53.700;10.252;2024-03-25T02:51:33;5.80;98.90
3186;DHT22;1604;53.700;10.252;2024-03-25T02:54:35;5.80;98.90
3186;DHT22;1604;53.700;10.252;2024-03-25T02:57:37;5.80;98.90
3186;DHT22;1604;53.700;10.252;2024-03-25T03:00:39;5.80;98.90
3186;DHT22;1604;53.700;10.252;2024-03-25T03:03:40;5.80;99.00
3186;DHT22;1604;53.700;10.252;2024-03-25T03:06:42;5.80;98.90
3186;DHT22;1604;53.700;10.252;2024-03-25T03:09:43;5.80;99.00
3186;DHT22;1604;53.700;10.252;2024-03-25T03:12:46;5.80;99.20
3186;DHT22;1604;53.700;10.252;2024-03-25T03:15:48;5.80;99.20
3186;DHT22;1604;53.700;10.252;2024-03-25T03:18:50;5.70;99.30
3186;DHT22;1604;53.700;10.252;2024-03-25T03:21:51;5.70;99.70
3186;DHT22;1604;53.700;10.252;2024-03-25T03:24:53;5.70;99.90
3186;DHT22;1604;53.700;10.252;2024-03-25T03:27:55;5.60;99.90
3186;DHT22;1604;53.700;10.252;2024-03-25T03:30:57;5.50;99.90
3186;DHT22;1604;53.700;10.252;2024-03-25T03:33:58;5.50;99.90
3186;DHT22;1604;53.700;10.252;2024-03-25T03:37:00;5.50;99.90
3186;DHT22;1604;53.700;10.252;2024-03-25T03:40:01;5.50;99.90
3186;DHT22;1604;53.700;10.252;2024-03-25T03:43:05;5.50;99.90
3186;DHT22;1604;53.700;10.252;2024-03-25T03:46:06;5.40;99.90
3186;DHT22;1604;53.700;10.252;2024-03-25T03:49:08;5.40;99.90
3186;DHT22;1604;53.700;10.252;2024-03-25T03:52:09;5.40;99.90
3186;DHT22;1604;53.700;10.252;2024-03-25T03:55:10;5.30;99.90
3186;DHT22;1604;53.700;10.252;2024-03-25T03:58:14;5.30;99.80
3186;DHT22;1604;53.700;10.252;2024-03-25T04:01:15;5.30;99.70
3186;DHT22;1604;53.700;10.252;2024-03-25T04:04:17;5.30;99.60
3186;DHT22;1604;53.700;10.252;2024-03-25T04:07:19;5.30;99.50
3186;DHT22;1604;53.700;10.252;2024-03-25T04:10:20;5.30;99.30
3186;DHT22;1604;53.700;10.252;2024-03-25T04:13:23;5.30;99.20
3186;DHT22;1604;53.700;10.252;2024-03-25T04:16:24;5.30;99.00
3186;DHT22;1604;53.700;10.252;2024-03-25T04:19:27;5.30;98.90
3186;DHT22;1604;53.700;10.252;2024-03-25T04:22:29;5.30;98.80
3186;DHT22;1604;53.700;10.252;2024-03-25T04:25:30;5.30;98.80
3186;DHT22;1604;53.700;10.252;2024-03-25T04:28:35;5.30;98.80
3186;DHT22;1604;53.700;10.252;2024-03-25T04:31:36;5.30;98.80
3186;DHT22;1604;53.700;10.252;2024-03-25T04:34:38;5.30;98.80
3186;DHT22;1604;53.700;10.252;2024-03-25T04:37:39;5.30;98.70
3186;DHT22;1604;53.700;10.252;2024-03-25T04:40:40;5.30;98.60
3186;DHT22;1604;53.700;10.252;2024-03-25T04:43:42;5.30;98.70
3186;DHT22;1604;53.700;10.252;2024-03-25T04:46:43;5.30;98.70
3186;DHT22;1604;53.700;10.252;2024-03-25T04:49:44;5.30;98.70
3186;DHT22;1604;53.700;10.252;2024-03-25T04:52:45;5.30;98.70
3186;DHT22;1604;53.700;10.252;2024-03-25T04:55:46;5.30;98.60
3186;DHT22;1604;53.700;10.252;2024-03-25T04:58:49;5.30;98.70
3186;DHT22;1604;53.700;10.252;2024-03-25T05:01:53;5.30;98.90
3186;DHT22;1604;53.700;10.252;2024-03-25T05:04:54;5.30;98.80
3186;DHT22;1604;53.700;10.252;2024-03-25T05:07:55;5.30;99.00
3186;DHT22;1604;53.700;10.252;2024-03-25T05:10:56;5.30;99.10
3186;DHT22;1604;53.700;10.252;2024-03-25T05:13:58;5.30;99.20
3186;DHT22;1604;53.700;10.252;2024-03-25T05:16:59;5.20;99.30
3186;DHT22;1604;53.700;10.252;2024-03-25T05:20:00;5.20;99.50
3186;DHT22;1604;53.700;10.252;2024-03-25T05:23:01;5.20;99.50
3186;DHT22;1604;53.700;10.252;2024-03-25T05:26:02;5.20;99.70
3186;DHT22;1604;53.700;10.252;2024-03-25T05:29:04;5.20;99.90
3186;DHT22;1604;53.700;10.252;2024-03-25T05:32:06;5.20;99.90
3186;DHT22;1604;53.700;10.252;2024-03-25T05:35:07;5.10;99.90
3186;DHT22;1604;53.700;10.252;2024-03-25T05:38:08;5.10;99.90
3186;DHT22;1604;53.700;10.252;2024-03-25T05:41:10;5.10;99.90
3186;DHT22;1604;53.700;10.252;2024-03-25T05:44:12;5.10;99.90
3186;DHT22;1604;53.700;10.252;2024-03-25T05:47:14;5.00;99.90
3186;DHT22;1604;53.700;10.252;2024-03-25T05:50:15;5.00;99.90
3186;DHT22;1604;53.700;10.252;2024-03-25T05:53:16;5.00;99.90
3186;DHT22;1604;53.700;10.252;2024-03-25T05:56:17;5.00;99.90
3186;DHT22;1604;53.700;10.252;2024-03-25T05:59:19;5.00;99.90
3186;DHT22;1604;53.700;10.252;2024-03-25T06:02:20;5.10;99.90
3186;DHT22;1604;53.700;10.252;2024-03-25T06:05:21;5.10;99.90
3186;DHT22;1604;53.700;10.252;2024-03-25T06:08:22;5.10;99.90
3186;DHT22;1604;53.700;10.252;2024-03-25T06:11:25;5.20;99.90
3186;DHT22;1604;53.700;10.252;2024-03-25T06:14:27;5.20;99.90
3186;DHT22;1604;53.700;10.252;2024-03-25T06:17:28;5.20;99.90
3186;DHT22;1604;53.700;10.252;2024-03-25T06:20:29;5.30;99.90
3186;DHT22;1604;53.700;10.252;2024-03-25T06:23:30;5.30;99.90
3186;DHT22;1604;53.700;10.252;2024-03-25T06:26:31;5.30;99.90
3186;DHT22;1604;53.700;10.252;2024-03-25T06:29:33;5.30;99.90
3186;DHT22;1604;53.700;10.252;2024-03-25T06:32:34;5.30;99.90
3186;DHT22;1604;53.700;10.252;2024-03-25T06:35:53;5.30;99.90
3186;DHT22;1604;53.700;10.252;2024-03-25T06:38:54;5.30;99.90
3186;DHT22;1604;53.700;10.252;2024-03-25T06:41:55;5.40;99.90
3186;DHT22;1604;53.700;10.252;2024-03-25T06:44:57;5.40;99.90
3186;DHT22;1604;53.700;10.252;2024-03-25T06:47:58;5.40;99.90
3186;DHT22;1604;53.700;10.252;2024-03-25T06:50:59;5.40;99.90
3186;DHT22;1604;53.700;10.252;2024-03-25T06:54:01;5.50;99.90
3186;DHT22;1604;53.700;10.252;2024-03-25T06:57:02;5.50;99.90
3186;DHT22;1604;53.700;10.252;2024-03-25T07:00:06;5.50;99.90
3186;DHT22;1604;53.700;10.252;2024-03-25T07:03:07;5.60;99.90
3186;DHT22;1604;53.700;10.252;2024-03-25T07:06:08;5.60;99.90
3186;DHT22;1604;53.700;10.252;2024-03-25T07:09:09;5.70;99.90
3186;DHT22;1604;53.700;10.252;2024-03-25T07:12:10;5.70;99.90
3186;DHT22;1604;53.700;10.252;2024-03-25T07:15:12;5.80;99.90
3186;DHT22;1604;53.700;10.252;2024-03-25T07:18:13;5.80;99.90
3186;DHT22;1604;53.700;10.252;2024-03-25T07:21:14;5.80;99.90
3186;DHT22;1604;53.700;10.252;2024-03-25T07:24:15;5.80;99.90
3186;DHT22;1604;53.700;10.252;2024-03-25T07:27:16;5.90;99.90
3186;DHT22;1604;53.700;10.252;2024-03-25T07:30:19;5.90;99.90
3186;DHT22;1604;53.700;10.252;2024-03-25T07:33:20;5.90;99.90
3186;DHT22;1604;53.700;10.252;2024-03-25T07:36:21;6.00;99.90
3186;DHT22;1604;53.700;10.252;2024-03-25T07:39:22;5.90;99.90
3186;DHT22;1604;53.700;10.252;2024-03-25T07:42:23;5.90;99.90
3186;DHT22;1604;53.700;10.252;2024-03-25T07:45:25;5.80;99.90
3186;DHT22;1604;53.700;10.252;2024-03-25T07:48:26;5.80;99.90
3186;DHT22;1604;53.700;10.252;2024-03-25T07:51:27;5.80;99.90
3186;DHT22;1604;53.700;10.252;2024-03-25T07:54:28;5.80;99.90
3186;DHT22;1604;53.700;10.252;2024-03-25T07:57:29;5.80;99.90
3186;DHT22;1604;53.700;10.252;2024-03-25T08:00:31;5.80;99.90
3186;DHT22;1604;53.700;10.252;2024-03-25T08:03:32;5.90;99.90
3186;DHT22;1604;53.700;10.252;2024-03-25T08:06:33;5.90;99.90
3186;DHT22;1604;53.700;10.252;2024-03-25T08:09:34;5.90;99.90
3186;DHT22;1604;53.700;10.252;2024-03-25T08:12:35;6.00;99.90
3186;DHT22;1604;53.700;10.252;2024-03-25T08:15:38;6.00;99.90
3186;DHT22;1604;53.700;10.252;2024-03-25T08:18:39;6.00;99.90
3186;DHT22;1604;53.700;10.252;2024-03-25T08:21:41;6.10;99.90
3186;DHT22;1604;53.700;10.252;2024-03-25T08:24:42;6.10;99.90
3186;DHT22;1604;53.700;10.252;2024-03-25T08:27:43;6.20;99.90
3186;DHT22;1604;53.700;10.252;2024-03-25T08:30:46;6.20;99.90
3186;DHT22;1604;53.700;10.252;2024-03-25T08:33:47;6.30;99.90
3186;DHT22;1604;53.700;10.252;2024-03-25T08:36:48;6.30;99.90
3186;DHT22;1604;53.700;10.252;2024-03-25T08:39:49;6.40;99.90
3186;DHT22;1604;53.700;10.252;2024-03-25T08:42:50;6.60;99.90
3186;DHT22;1604;53.700;10.252;2024-03-25T08:45:52;6.70;99.90
3186;DHT22;1604;53.700;10.252;2024-03-25T08:48:53;7.00;99.90
3186;DHT22;1604;53.700;10.252;2024-03-25T08:51:54;7.20;99.90
3186;DHT22;1604;53.700;10.252;2024-03-25T08:54:55;7.50;99.90
3186;DHT22;1604;53.700;10.252;2024-03-25T08:57:56;7.60;99.90
3186;DHT22;1604;53.700;10.252;2024-03-25T09:00:59;7.70;99.90
3186;DHT22;1604;53.700;10.252;2024-03-25T09:04:00;7.60;99.90
3186;DHT22;1604;53.700;10.252;2024-03-25T09:07:02;7.40;99.90
3186;DHT22;1604;53.700;10.252;2024-03-25T09:10:04;7.30;99.90
3186;DHT22;1604;53.700;10.252;2024-03-25T09:13:23;7.20;99.90
3186;DHT22;1604;53.700;10.252;2024-03-25T09:16:26;7.30;99.90
3186;DHT22;1604;53.700;10.252;2024-03-25T09:19:27;7.40;99.90
3186;DHT22;1604;53.700;10.252;2024-03-25T09:22:29;7.50;99.90
3186;DHT22;1604;53.700;10.252;2024-03-25T09:25:30;7.60;99.90
3186;DHT22;1604;53.700;10.252;2024-03-25T09:28:31;7.60;99.90
3186;DHT22;1604;53.700;10.252;2024-03-25T09:31:33;7.70;99.90
3186;DHT22;1604;53.700;10.252;2024-03-25T09:34:34;7.80;99.90
3186;DHT22;1604;53.700;10.252;2024-03-25T09:37:35;7.90;99.90
3186;DHT22;1604;53.700;10.252;2024-03-25T09:40:40;7.80;99.90
3186;DHT22;1604;53.700;10.252;2024-03-25T09:43:43;7.60;99.90
3186;DHT22;1604;53.700;10.252;2024-03-25T09:46:46;7.30;99.90
3186;DHT22;1604;53.700;10.252;2024-03-25T09:49:48;7.10;99.90
3186;DHT22;1604;53.700;10.252;2024-03-25T09:52:49;6.90;99.90
3186;DHT22;1604;53.700;10.252;2024-03-25T09:55:51;6.80;99.90
3186;DHT22;1604;53.700;10.252;2024-03-25T09:58:52;6.80;99.90
3186;DHT22;1604;53.700;10.252;2024-03-25T10:01:56;6.80;99.90
3186;DHT22;1604;53.700;10.252;2024-03-25T10:04:59;6.80;99.90
3186;DHT22;1604;53.700;10.252;2024-03-25T10:08:00;7.00;99.90
3186;DHT22;1604;53.700;10.252;2024-03-25T10:11:02;7.10;99.90
3186;DHT22;1604;53.700;10.252;2024-03-25T10:14:04;7.20;99.90
3186;DHT22;1604;53.700;10.252;2024-03-25T10:17:07;7.30;99.90
3186;DHT22;1604;53.700;10.252;2024-03-25T10:20:13;7.50;99.90
3186;DHT22;1604;53.700;10.252;2024-03-25T10:23:14;7.70;99.90
3186;DHT22;1604;53.700;10.252;2024-03-25T10:26:26;7.80;99.90
3186;DHT22;1604;53.700;10.252;2024-03-25T10:29:27;8.10;99.90
3186;DHT22;1604;53.700;10.252;2024-03-25T10:32:30;8.10;99.90
3186;DHT22;1604;53.700;10.252;2024-03-25T10:35:32;8.20;99.90
3186;DHT22;1604;53.700;10.252;2024-03-25T10:38:33;8.30;99.90
3186;DHT22;1604;53.700;10.252;2024-03-25T10:41:35;8.30;99.90
3186;DHT22;1604;53.700;10.252;2024-03-25T10:44:36;8.50;99.90
3186;DHT22;1604;53.700;10.252;2024-03-25T10:47:39;8.50;99.90
3186;DHT22;1604;53.700;10.252;2024-03-25T10:50:41;8.60;99.90
3186;DHT22;1604;53.700;10.252;2024-03-25T10:53:45;8.60;99.90
3186;DHT22;1604;53.700;10.252;2024-03-25T10:56:47;8.60;99.90
3186;DHT22;1604;53.700;10.252;2024-03-25T10:59:49;8.70;99.90
3186;DHT22;1604;53.700;10.252;2024-03-25T11:02:52;8.80;99.90
3186;DHT22;1604;53.700;10.252;2024-03-25T11:05:53;9.10;99.90
3186;DHT22;1604;53.700;10.252;2024-03-25T11:08:58;9.40;99.90
3186;DHT22;1604;53.700;10.252;2024-03-25T11:12:00;9.70;99.90
3186;DHT22;1604;53.700;10.252;2024-03-25T11:15:02;9.80;99.80
3186;DHT22;1604;53.700;10.252;2024-03-25T11:18:10;9.90;98.00
3186;DHT22;1604;53.700;10.252;2024-03-25T11:21:12;9.80;97.90
3186;DHT22;1604;53.700;10.252;2024-03-25T11:24:13;9.70;95.80
3186;DHT22;1604;53.700;10.252;2024-03-25T11:27:14;9.70;95.90
3186;DHT22;1604;53.700;10.252;2024-03-25T11:30:15;9.80;93.60
3186;DHT22;1604;53.700;10.252;2024-03-25T11:33:17;9.90;93.90
3186;DHT22;1604;53.700;10.252;2024-03-25T11:36:18;10.10;93.10
3186;DHT22;1604;53.700;10.252;2024-03-25T11:39:20;10.40;90.40
3186;DHT22;1604;53.700;10.252;2024-03-25T11:42:21;10.60;89.70
3186;DHT22;1604;53.700;10.252;2024-03-25T11:45:22;10.80;90.90
3186;DHT22;1604;53.700;10.252;2024-03-25T11:48:24;11.10;87.30
3186;DHT22;1604;53.700;10.252;2024-03-25T11:51:26;11.30;83.60
3186;DHT22;1604;53.700;10.252;2024-03-25T11:54:27;11.40;79.70
3186;DHT22;1604;53.700;10.252;2024-03-25T11:57:29;11.20;77.90
3186;DHT22;1604;53.700;10.252;2024-03-25T12:00:29;10.90;75.40
3186;DHT22;1604;53.700;10.252;2024-03-25T12:03:33;10.70;73.60
3186;DHT22;1604;53.700;10.252;2024-03-25T12:06:34;10.60;77.60
3186;DHT22;1604;53.700;10.252;2024-03-25T12:09:35;10.60;75.80
3186;DHT22;1604;53.700;10.252;2024-03-25T12:12:55;10.50;76.60
3186;DHT22;1604;53.700;10.252;2024-03-25T12:15:57;10.50;78.70
3186;DHT22;1604;53.700;10.252;2024-03-25T12:18:59;10.70;76.70
3186;DHT22;1604;53.700;10.252;2024-03-25T12:22:01;10.70;78.40
3186;DHT22;1604;53.700;10.252;2024-03-25T12:25:03;10.70;75.00
3186;DHT22;1604;53.700;10.252;2024-03-25T12:28:08;10.60;75.70
3186;DHT22;1604;53.700;10.252;2024-03-25T12:31:10;10.60;77.60
3186;DHT22;1604;53.700;10.252;2024-03-25T12:34:14;10.50;77.50
3186;DHT22;1604;53.700;10.252;2024-03-25T12:37:15;10.50;77.90
3186;DHT22;1604;53.700;10.252;2024-03-25T12:40:26;10.50;78.40
3186;DHT22;1604;53.700;10.252;2024-03-25T12:43:27;10.60;80.10
3186;DHT22;1604;53.700;10.252;2024-03-25T12:46:28;10.70;80.70
3186;DHT22;1604;53.700;10.252;2024-03-25T12:49:31;10.70;78.60
3186;DHT22;1604;53.700;10.252;2024-03-25T12:52:32;10.60;77.20
3186;DHT22;1604;53.700;10.252;2024-03-25T12:55:33;10.60;78.60
3186;DHT22;1604;53.700;10.252;2024-03-25T12:58:34;10.80;79.10
3186;DHT22;1604;53.700;10.252;2024-03-25T13:01:35;11.00;79.20
3186;DHT22;1604;53.700;10.252;2024-03-25T13:04:38;11.30;77.50
3186;DHT22;1604;53.700;10.252;2024-03-25T13:07:39;11.50;77.80
3186;DHT22;1604;53.700;10.252;2024-03-25T13:10:40;11.80;78.00
3186;DHT22;1604;53.700;10.252;2024-03-25T13:13:41;12.00;75.60
3186;DHT22;1604;53.700;10.252;2024-03-25T13:16:42;12.10;74.90
3186;DHT22;1604;53.700;10.252;2024-03-25T13:19:44;12.10;74.50
3186;DHT22;1604;53.700;10.252;2024-03-25T13:22:45;12.00;74.90
3186;DHT22;1604;53.700;10.252;2024-03-25T13:25:46;12.00;75.10
3186;DHT22;1604;53.700;10.252;2024-03-25T13:28:47;11.90;76.50
3186;DHT22;1604;53.700;10.252;2024-03-25T13:31:48;11.90;76.20
3186;DHT22;1604;53.700;10.252;2024-03-25T13:34:50;11.70;78.50
3186;DHT22;1604;53.700;10.252;2024-03-25T13:37:51;11.90;79.00
3186;DHT22;1604;53.700;10.252;2024-03-25T13:40:53;11.90;78.10
3186;DHT22;1604;53.700;10.252;2024-03-25T13:43:54;11.80;78.80
3186;DHT22;1604;53.700;10.252;2024-03-25T13:46:55;11.60;80.10
3186;DHT22;1604;53.700;10.252;2024-03-25T13:50:04;11.60;77.80
3186;DHT22;1604;53.700;10.252;2024-03-25T13:53:06;11.70;78.20
3186;DHT22;1604;53.700;10.252;2024-03-25T13:56:07;11.70;77.50
3186;DHT22;1604;53.700;10.252;2024-03-25T13:59:08;11.80;72.70
3186;DHT22;1604;53.700;10.252;2024-03-25T14:02:09;11.90;72.60
3186;DHT22;1604;53.700;10.252;2024-03-25T14:05:11;11.80;74.30
3186;DHT22;1604;53.700;10.252;2024-03-25T14:08:13;11.70;72.30
3186;DHT22;1604;53.700;10.252;2024-03-25T14:11:14;11.80;73.30
3186;DHT22;1604;53.700;10.252;2024-03-25T14:14:14;11.90;74.10
3186;DHT22;1604;53.700;10.252;2024-03-25T14:17:15;11.90;74.10
3186;DHT22;1604;53.700;10.252;2024-03-25T14:20:18;11.90;73.70
3186;DHT22;1604;53.700;10.252;2024-03-25T14:23:19;11.90;73.80
3186;DHT22;1604;53.700;10.252;2024-03-25T14:26:20;11.80;76.20
3186;DHT22;1604;53.700;10.252;2024-03-25T14:29:21;11.80;74.80
3186;DHT22;1604;53.700;10.252;2024-03-25T14:32:23;11.90;73.20
3186;DHT22;1604;53.700;10.252;2024-03-25T14:35:26;11.60;73.20
3186;DHT22;1604;53.700;10.252;2024-03-25T14:38:27;11.70;73.90
3186;DHT22;1604;53.700;10.252;2024-03-25T14:41:38;11.70;73.40
3186;DHT22;1604;53.700;10.252;2024-03-25T14:44:39;11.60;73.70
3186;DHT22;1604;53.700;10.252;2024-03-25T14:47:41;11.50;74.80
3186;DHT22;1604;53.700;10.252;2024-03-25T14:50:43;11.50;74.30
3186;DHT22;1604;53.700;10.252;2024-03-25T14:53:45;11.40;74.50
3186;DHT22;1604;53.700;10.252;2024-03-25T14:56:46;11.40;74.40
3186;DHT22;1604;53.700;10.252;2024-03-25T14:59:48;11.20;74.90
3186;DHT22;1604;53.700;10.252;2024-03-25T15:02:49;11.10;74.70
3186;DHT22;1604;53.700;10.252;2024-03-25T15:05:54;11.10;74.20
3186;DHT22;1604;53.700;10.252;2024-03-25T15:08:56;11.00;74.30
3186;DHT22;1604;53.700;10.252;2024-03-25T15:11:57;11.00;74.90
3186;DHT22;1604;53.700;10.252;2024-03-25T15:14:58;10.90;74.90
3186;DHT22;1604;53.700;10.252;2024-03-25T15:17:59;10.70;75.00
3186;DHT22;1604;53.700;10.252;2024-03-25T15:21:02;10.60;74.60
3186;DHT22;1604;53.700;10.252;2024-03-25T15:24:04;10.40;74.50
3186;DHT22;1604;53.700;10.252;2024-03-25T15:27:05;10.20;74.60
3186;DHT22;1604;53.700;10.252;2024-03-25T15:30:07;10.10;74.80
3186;DHT22;1604;53.700;10.252;2024-03-25T15:33:08;10.10;76.30
3186;DHT22;1604;53.700;10.252;2024-03-25T15:36:11;10.00;75.30
3186;DHT22;1604;53.700;10.252;2024-03-25T15:39:12;10.00;71.50
3186;DHT22;1604;53.700;10.252;2024-03-25T15:42:13;10.00;70.90
3186;DHT22;1604;53.700;10.252;2024-03-25T15:45:14;10.00;69.90
3186;DHT22;1604;53.700;10.252;2024-03-25T15:48:15;9.90;70.20
3186;DHT22;1604;53.700;10.252;2024-03-25T15:51:17;9.80;69.60
3186;DHT22;1604;53.700;10.252;2024-03-25T15:54:19;9.80;70.40
3186;DHT22;1604;53.700;10.252;2024-03-25T15:57:20;9.70;69.50
3186;DHT22;1604;53.700;10.252;2024-03-25T16:00:21;9.70;69.60
3186;DHT22;1604;53.700;10.252;2024-03-25T16:03:22;9.70;71.20
3186;DHT22;1604;53.700;10.252;2024-03-25T16:06:25;9.60;71.70
3186;DHT22;1604;53.700;10.252;2024-03-25T16:09:29;9.50;72.10
3186;DHT22;1604;53.700;10.252;2024-03-25T16:12:30;9.40;73.80
3186;DHT22;1604;53.700;10.252;2024-03-25T16:15:32;9.40;74.50
3186;DHT22;1604;53.700;10.252;2024-03-25T16:18:33;9.30;73.70
3186;DHT22;1604;53.700;10.252;2024-03-25T16:21:35;9.30;74.40
3186;DHT22;1604;53.700;10.252;2024-03-25T16:24:36;9.20;75.20
3186;DHT22;1604;53.700;10.252;2024-03-25T16:27:37;9.20;75.70
3186;DHT22;1604;53.700;10.252;2024-03-25T16:30:38;9.10;76.60
3186;DHT22;1604;53.700;10.252;2024-03-25T16:33:39;9.00;77.20
3186;DHT22;1604;53.700;10.252;2024-03-25T16:36:41;9.00;77.50
3186;DHT22;1604;53.700;10.252;2024-03-25T16:39:43;9.00;78.30
3186;DHT22;1604;53.700;10.252;2024-03-25T16:42:44;8.90;79.30
3186;DHT22;1604;53.700;10.252;2024-03-25T16:45:45;8.80;80.00
3186;DHT22;1604;53.700;10.252;2024-03-25T16:48:46;8.80;80.90
3186;DHT22;1604;53.700;10.252;2024-03-25T16:51:48;8.70;81.60
3186;DHT22;1604;53.700;10.252;2024-03-25T16:54:49;8.70;82.80
3186;DHT22;1604;53.700;10.252;2024-03-25T16:57:50;8.60;83.20
3186;DHT22;1604;53.700;10.252;2024-03-25T17:00:51;8.60;82.80
3186;DHT22;1604;53.700;10.252;2024-03-25T17:03:52;8.50;83.50
3186;DHT22;1604;53.700;10.252;2024-03-25T17:06:54;8.50;84.00
3186;DHT22;1604;53.700;10.252;2024-03-25T17:09:55;8.40;84.70
3186;DHT22;1604;53.700;10.252;2024-03-25T17:12:56;8.30;85.50
3186;DHT22;1604;53.700;10.252;2024-03-25T17:15:57;8.20;86.30
3186;DHT22;1604;53.700;10.252;2024-03-25T17:18:58;8.20;87.00
3186;DHT22;1604;53.700;10.252;2024-03-25T17:22:01;8.10;87.70
3186;DHT22;1604;53.700;10.252;2024-03-25T17:25:02;8.00;88.50
3186;DHT22;1604;53.700;10.252;2024-03-25T17:28:03;8.00;89.10
3186;DHT22;1604;53.700;10.252;2024-03-25T17:31:05;7.90;90.00
3186;DHT22;1604;53.700;10.252;2024-03-25T17:34:07;7.80;90.60
3186;DHT22;1604;53.700;10.252;2024-03-25T17:37:09;7.70;91.00
3186;DHT22;1604;53.700;10.252;2024-03-25T17:40:11;7.70;91.40
3186;DHT22;1604;53.700;10.252;2024-03-25T17:43:12;7.60;91.90
3186;DHT22;1604;53.700;10.252;2024-03-25T17:46:13;7.50;92.40
3186;DHT22;1604;53.700;10.252;2024-03-25T17:49:14;7.40;93.00
3186;DHT22;1604;53.700;10.252;2024-03-25T17:52:16;7.30;93.40
3186;DHT22;1604;53.700;10.252;2024-03-25T17:55:17;7.20;94.20
3186;DHT22;1604;53.700;10.252;2024-03-25T17:58:18;7.20;95.10
3186;DHT22;1604;53.700;10.252;2024-03-25T18:01:19;7.10;95.80
3186;DHT22;1604;53.700;10.252;2024-03-25T18:04:20;7.00;96.30
3186;DHT22;1604;53.700;10.252;2024-03-25T18:07:22;6.90;97.00
3186;DHT22;1604;53.700;10.252;2024-03-25T18:10:24;6.80;98.00
3186;DHT22;1604;53.700;10.252;2024-03-25T18:13:24;6.70;98.90
3186;DHT22;1604;53.700;10.252;2024-03-25T18:16:25;6.60;99.30
3186;DHT22;1604;53.700;10.252;2024-03-25T18:19:26;6.50;99.70
3186;DHT22;1604;53.700;10.252;2024-03-25T18:22:29;6.50;99.90
3186;DHT22;1604;53.700;10.252;2024-03-25T18:25:30;6.40;99.90
3186;DHT22;1604;53.700;10.252;2024-03-25T18:28:31;6.30;99.90
3186;DHT22;1604;53.700;10.252;2024-03-25T18:31:32;6.20;99.90
3186;DHT22;1604;53.700;10.252;2024-03-25T18:34:33;6.10;99.90
3186;DHT22;1604;53.700;10.252;2024-03-25T18:37:35;6.00;99.90
3186;DHT22;1604;53.700;10.252;2024-03-25T18:40:36;5.90;99.90
3186;DHT22;1604;53.700;10.252;2024-03-25T18:43:37;5.90;99.90
3186;DHT22;1604;53.700;10.252;2024-03-25T18:46:38;5.80;99.90
3186;DHT22;1604;53.700;10.252;2024-03-25T18:49:39;5.70;99.90
3186;DHT22;1604;53.700;10.252;2024-03-25T18:52:42;5.60;99.90
3186;DHT22;1604;53.700;10.252;2024-03-25T18:55:43;5.60;99.90
3186;DHT22;1604;53.700;10.252;2024-03-25T18:58:44;5.50;99.90
3186;DHT22;1604;53.700;10.252;2024-03-25T19:01:45;5.40;99.90
3186;DHT22;1604;53.700;10.252;2024-03-25T19:04:46;5.30;99.90
3186;DHT22;1604;53.700;10.252;2024-03-25T19:07:48;5.20;99.90
3186;DHT22;1604;53.700;10.252;2024-03-25T19:10:49;5.20;99.90
3186;DHT22;1604;53.700;10.252;2024-03-25T19:13:50;5.10;99.90
3186;DHT22;1604;53.700;10.252;2024-03-25T19:16:51;5.00;99.90
3186;DHT22;1604;53.700;10.252;2024-03-25T19:19:52;4.90;99.90
3186;DHT22;1604;53.700;10.252;2024-03-25T19:22:55;4.80;99.90
3186;DHT22;1604;53.700;10.252;2024-03-25T19:25:56;4.80;99.90
3186;DHT22;1604;53.700;10.252;2024-03-25T19:28:57;4.70;99.90
3186;DHT22;1604;53.700;10.252;2024-03-25T19:31:58;4.60;99.90
3186;DHT22;1604;53.700;10.252;2024-03-25T19:34:59;4.50;99.90
3186;DHT22;1604;53.700;10.252;2024-03-25T19:38:01;4.50;99.90
3186;DHT22;1604;53.700;10.252;2024-03-25T19:41:03;4.40;99.90